sensor_id;sensor_type;location;lat;lon;timestamp;P1;durP1;ratioP1;P2;durP2;ratioP2
23390;SDS011;11868;45.606;5.302;2022-09-13T00:01:07;4.82;;;3.25;;
23390;SDS011;11868;45.606;5.302;2022-09-13T00:03:33;5.30;;;3.22;;
23390;SDS011;11868;45.606;5.302;2022-09-13T00:06:05;7.38;;;3.30;;
23390;SDS011;11868;45.606;5.302;2022-09-13T00:08:35;7.97;;;2.78;;
23390;SDS011;11868;45.606;5.302;2022-09-13T00:11:00;5.50;;;3.20;;
23390;SDS011;11868;45.606;5.302;2022-09-13T00:13:26;8.13;;;3.30;;
23390;SDS011;11868;45.606;5.302;2022-09-13T00:15:51;7.88;;;3.67;;
23390;SDS011;11868;45.606;5.302;2022-09-13T00:18:17;7.10;;;3.13;;
23390;SDS011;11868;45.606;5.302;2022-09-13T00:20:43;6.00;;;3.60;;
23390;SDS011;11868;45.606;5.302;2022-09-13T00:23:09;6.90;;;3.40;;
23390;SDS011;11868;45.606;5.302;2022-09-13T00:25:35;8.88;;;3.50;;
23390;SDS011;11868;45.606;5.302;2022-09-13T00:28:00;7.03;;;3.70;;
23390;SDS011;11868;45.606;5.302;2022-09-13T00:30:27;6.32;;;3.13;;
23390;SDS011;11868;45.606;5.302;2022-09-13T00:32:52;6.10;;;3.45;;
23390;SDS011;11868;45.606;5.302;2022-09-13T00:35:18;8.93;;;3.50;;
23390;SDS011;11868;45.606;5.302;2022-09-13T00:37:44;9.23;;;3.80;;
23390;SDS011;11868;45.606;5.302;2022-09-13T00:40:10;7.63;;;4.10;;
23390;SDS011;11868;45.606;5.302;2022-09-13T00:42:36;5.97;;;4.07;;
23390;SDS011;11868;45.606;5.302;2022-09-13T00:45:13;6.13;;;3.85;;
23390;SDS011;11868;45.606;5.302;2022-09-13T00:55:42;8.27;;;4.20;;
23390;SDS011;11868;45.606;5.302;2022-09-13T00:58:10;6.00;;;4.17;;
23390;SDS011;11868;45.606;5.302;2022-09-13T01:00:38;9.70;;;4.45;;
23390;SDS011;11868;45.606;5.302;2022-09-13T01:03:05;6.57;;;4.47;;
23390;SDS011;11868;45.606;5.302;2022-09-13T01:05:34;13.13;;;4.25;;
23390;SDS011;11868;45.606;5.302;2022-09-13T01:08:01;9.20;;;4.60;;
23390;SDS011;11868;45.606;5.302;2022-09-13T01:10:27;7.18;;;3.92;;
23390;SDS011;11868;45.606;5.302;2022-09-13T01:13:00;8.52;;;4.43;;
23390;SDS011;11868;45.606;5.302;2022-09-13T01:15:37;8.30;;;4.53;;
23390;SDS011;11868;45.606;5.302;2022-09-13T01:18:02;9.20;;;4.10;;
23390;SDS011;11868;45.606;5.302;2022-09-13T01:23:35;13.45;;;4.38;;
23390;SDS011;11868;45.606;5.302;2022-09-13T01:26:12;7.35;;;4.25;;
23390;SDS011;11868;45.606;5.302;2022-09-13T01:49:24;11.27;;;4.25;;
23390;SDS011;11868;45.606;5.302;2022-09-13T01:52:04;7.22;;;4.20;;
23390;SDS011;11868;45.606;5.302;2022-09-13T01:54:48;6.03;;;4.57;;
23390;SDS011;11868;45.606;5.302;2022-09-13T01:57:42;7.03;;;4.40;;
23390;SDS011;11868;45.606;5.302;2022-09-13T02:00:14;5.63;;;3.95;;
23390;SDS011;11868;45.606;5.302;2022-09-13T02:02:42;10.93;;;4.97;;
23390;SDS011;11868;45.606;5.302;2022-09-13T02:07:49;8.65;;;4.35;;
23390;SDS011;11868;45.606;5.302;2022-09-13T02:11:03;9.73;;;5.07;;
23390;SDS011;11868;45.606;5.302;2022-09-13T02:13:12;6.70;;;5.03;;
23390;SDS011;11868;45.606;5.302;2022-09-13T02:15:45;9.07;;;5.50;;
23390;SDS011;11868;45.606;5.302;2022-09-13T02:18:14;9.88;;;5.57;;
23390;SDS011;11868;45.606;5.302;2022-09-13T02:20:44;10.10;;;5.13;;
23390;SDS011;11868;45.606;5.302;2022-09-13T02:23:20;9.30;;;5.20;;
23390;SDS011;11868;45.606;5.302;2022-09-13T02:25:50;9.20;;;4.90;;
23390;SDS011;11868;45.606;5.302;2022-09-13T02:28:19;6.03;;;4.95;;
23390;SDS011;11868;45.606;5.302;2022-09-13T02:30:49;9.65;;;4.85;;
23390;SDS011;11868;45.606;5.302;2022-09-13T02:33:28;7.03;;;5.18;;
23390;SDS011;11868;45.606;5.302;2022-09-13T02:36:07;5.95;;;4.70;;
23390;SDS011;11868;45.606;5.302;2022-09-13T02:38:40;8.85;;;4.97;;
23390;SDS011;11868;45.606;5.302;2022-09-13T02:41:17;11.15;;;5.20;;
23390;SDS011;11868;45.606;5.302;2022-09-13T02:43:50;7.35;;;5.03;;
23390;SDS011;11868;45.606;5.302;2022-09-13T02:49:21;10.20;;;5.45;;
23390;SDS011;11868;45.606;5.302;2022-09-13T02:57:10;7.10;;;4.88;;
23390;SDS011;11868;45.606;5.302;2022-09-13T02:59:38;9.90;;;5.40;;
23390;SDS011;11868;45.606;5.302;2022-09-13T03:02:06;9.50;;;5.20;;
23390;SDS011;11868;45.606;5.302;2022-09-13T03:04:34;9.85;;;5.22;;
23390;SDS011;11868;45.606;5.302;2022-09-13T03:07:00;10.50;;;5.43;;
23390;SDS011;11868;45.606;5.302;2022-09-13T03:09:28;7.93;;;5.05;;
23390;SDS011;11868;45.606;5.302;2022-09-13T03:17:29;8.13;;;5.32;;
23390;SDS011;11868;45.606;5.302;2022-09-13T03:20:20;8.93;;;5.15;;
23390;SDS011;11868;45.606;5.302;2022-09-13T03:31:07;8.70;;;4.85;;
23390;SDS011;11868;45.606;5.302;2022-09-13T03:33:46;9.73;;;4.57;;
23390;SDS011;11868;45.606;5.302;2022-09-13T03:36:20;8.73;;;4.53;;
23390;SDS011;11868;45.606;5.302;2022-09-13T03:39:11;9.02;;;4.68;;
23390;SDS011;11868;45.606;5.302;2022-09-13T03:41:45;10.77;;;4.60;;
23390;SDS011;11868;45.606;5.302;2022-09-13T03:44:15;8.23;;;4.70;;
23390;SDS011;11868;45.606;5.302;2022-09-13T03:46:43;9.57;;;4.82;;
23390;SDS011;11868;45.606;5.302;2022-09-13T03:49:14;9.23;;;4.83;;
23390;SDS011;11868;45.606;5.302;2022-09-13T03:51:42;11.88;;;4.88;;
23390;SDS011;11868;45.606;5.302;2022-09-13T03:54:10;10.93;;;4.45;;
23390;SDS011;11868;45.606;5.302;2022-09-13T03:57:14;7.28;;;4.55;;
23390;SDS011;11868;45.606;5.302;2022-09-13T03:59:50;8.48;;;4.70;;
23390;SDS011;11868;45.606;5.302;2022-09-13T04:02:18;7.90;;;4.63;;
23390;SDS011;11868;45.606;5.302;2022-09-13T04:04:44;12.27;;;5.03;;
23390;SDS011;11868;45.606;5.302;2022-09-13T04:07:12;7.50;;;4.80;;
23390;SDS011;11868;45.606;5.302;2022-09-13T04:09:38;10.68;;;4.80;;
23390;SDS011;11868;45.606;5.302;2022-09-13T04:12:03;7.32;;;4.72;;
23390;SDS011;11868;45.606;5.302;2022-09-13T04:14:29;6.47;;;4.65;;
23390;SDS011;11868;45.606;5.302;2022-09-13T04:16:56;11.15;;;4.60;;
23390;SDS011;11868;45.606;5.302;2022-09-13T04:19:22;8.10;;;4.38;;
23390;SDS011;11868;45.606;5.302;2022-09-13T04:21:49;8.43;;;4.30;;
23390;SDS011;11868;45.606;5.302;2022-09-13T04:24:15;7.93;;;4.55;;
23390;SDS011;11868;45.606;5.302;2022-09-13T04:26:42;4.65;;;4.10;;
23390;SDS011;11868;45.606;5.302;2022-09-13T04:29:08;8.52;;;4.43;;
23390;SDS011;11868;45.606;5.302;2022-09-13T04:31:33;7.40;;;4.20;;
23390;SDS011;11868;45.606;5.302;2022-09-13T04:33:59;7.03;;;4.05;;
23390;SDS011;11868;45.606;5.302;2022-09-13T04:36:24;7.03;;;4.13;;
23390;SDS011;11868;45.606;5.302;2022-09-13T04:38:51;6.88;;;4.00;;
23390;SDS011;11868;45.606;5.302;2022-09-13T04:41:17;10.00;;;4.15;;
23390;SDS011;11868;45.606;5.302;2022-09-13T04:43:43;11.27;;;4.07;;
23390;SDS011;11868;45.606;5.302;2022-09-13T04:46:08;9.15;;;4.45;;
23390;SDS011;11868;45.606;5.302;2022-09-13T04:48:34;11.27;;;4.63;;
23390;SDS011;11868;45.606;5.302;2022-09-13T04:51:00;8.88;;;4.22;;
23390;SDS011;11868;45.606;5.302;2022-09-13T04:53:28;7.33;;;4.13;;
23390;SDS011;11868;45.606;5.302;2022-09-13T04:55:58;7.22;;;4.22;;
23390;SDS011;11868;45.606;5.302;2022-09-13T04:58:27;6.35;;;3.58;;
23390;SDS011;11868;45.606;5.302;2022-09-13T05:00:53;8.30;;;4.05;;
23390;SDS011;11868;45.606;5.302;2022-09-13T05:03:24;7.40;;;3.83;;
23390;SDS011;11868;45.606;5.302;2022-09-13T05:05:50;5.68;;;4.25;;
23390;SDS011;11868;45.606;5.302;2022-09-13T05:08:16;9.40;;;4.40;;
23390;SDS011;11868;45.606;5.302;2022-09-13T05:10:41;9.27;;;4.32;;
23390;SDS011;11868;45.606;5.302;2022-09-13T05:13:07;6.97;;;3.88;;
23390;SDS011;11868;45.606;5.302;2022-09-13T05:15:32;7.32;;;3.97;;
23390;SDS011;11868;45.606;5.302;2022-09-13T05:17:57;5.30;;;3.78;;
23390;SDS011;11868;45.606;5.302;2022-09-13T05:20:23;9.32;;;4.50;;
23390;SDS011;11868;45.606;5.302;2022-09-13T05:22:48;6.43;;;3.75;;
23390;SDS011;11868;45.606;5.302;2022-09-13T05:25:13;4.10;;;3.63;;
23390;SDS011;11868;45.606;5.302;2022-09-13T05:27:39;6.20;;;3.83;;
23390;SDS011;11868;45.606;5.302;2022-09-13T05:30:04;6.45;;;3.70;;
23390;SDS011;11868;45.606;5.302;2022-09-13T05:32:31;6.40;;;4.25;;
23390;SDS011;11868;45.606;5.302;2022-09-13T05:34:58;8.95;;;4.20;;
23390;SDS011;11868;45.606;5.302;2022-09-13T05:37:23;6.28;;;4.13;;
23390;SDS011;11868;45.606;5.302;2022-09-13T05:39:48;9.02;;;4.45;;
23390;SDS011;11868;45.606;5.302;2022-09-13T05:42:14;7.97;;;3.85;;
23390;SDS011;11868;45.606;5.302;2022-09-13T05:44:39;5.68;;;4.30;;
23390;SDS011;11868;45.606;5.302;2022-09-13T05:47:05;6.90;;;3.95;;
23390;SDS011;11868;45.606;5.302;2022-09-13T05:49:30;7.22;;;4.03;;
23390;SDS011;11868;45.606;5.302;2022-09-13T05:51:56;10.27;;;3.97;;
23390;SDS011;11868;45.606;5.302;2022-09-13T05:54:21;8.15;;;3.90;;
23390;SDS011;11868;45.606;5.302;2022-09-13T05:56:47;5.75;;;3.50;;
23390;SDS011;11868;45.606;5.302;2022-09-13T05:59:12;5.95;;;3.63;;
23390;SDS011;11868;45.606;5.302;2022-09-13T06:01:41;4.60;;;3.22;;
23390;SDS011;11868;45.606;5.302;2022-09-13T06:04:06;3.55;;;3.00;;
23390;SDS011;11868;45.606;5.302;2022-09-13T06:06:31;5.35;;;3.30;;
23390;SDS011;11868;45.606;5.302;2022-09-13T06:08:59;6.88;;;3.45;;
23390;SDS011;11868;45.606;5.302;2022-09-13T06:11:25;4.53;;;3.00;;
23390;SDS011;11868;45.606;5.302;2022-09-13T06:13:51;6.25;;;3.70;;
23390;SDS011;11868;45.606;5.302;2022-09-13T06:16:17;6.55;;;3.53;;
23390;SDS011;11868;45.606;5.302;2022-09-13T06:18:44;6.97;;;3.40;;
23390;SDS011;11868;45.606;5.302;2022-09-13T06:21:10;8.00;;;3.72;;
23390;SDS011;11868;45.606;5.302;2022-09-13T06:23:41;5.78;;;3.60;;
23390;SDS011;11868;45.606;5.302;2022-09-13T06:26:08;6.28;;;3.35;;
23390;SDS011;11868;45.606;5.302;2022-09-13T06:28:35;7.32;;;3.40;;
23390;SDS011;11868;45.606;5.302;2022-09-13T06:31:08;6.35;;;3.50;;
23390;SDS011;11868;45.606;5.302;2022-09-13T06:33:35;8.02;;;2.95;;
23390;SDS011;11868;45.606;5.302;2022-09-13T06:36:02;8.55;;;2.92;;
23390;SDS011;11868;45.606;5.302;2022-09-13T06:38:28;3.90;;;3.00;;
23390;SDS011;11868;45.606;5.302;2022-09-13T06:43:32;6.45;;;2.88;;
23390;SDS011;11868;45.606;5.302;2022-09-13T06:46:01;5.82;;;3.10;;
23390;SDS011;11868;45.606;5.302;2022-09-13T06:48:31;4.57;;;2.65;;
23390;SDS011;11868;45.606;5.302;2022-09-13T06:51:00;6.45;;;3.40;;
23390;SDS011;11868;45.606;5.302;2022-09-13T06:53:27;5.93;;;2.90;;
23390;SDS011;11868;45.606;5.302;2022-09-13T06:55:59;4.93;;;2.63;;
23390;SDS011;11868;45.606;5.302;2022-09-13T06:58:25;6.90;;;2.90;;
23390;SDS011;11868;45.606;5.302;2022-09-13T07:00:53;5.22;;;2.65;;
23390;SDS011;11868;45.606;5.302;2022-09-13T07:03:18;4.25;;;2.65;;
23390;SDS011;11868;45.606;5.302;2022-09-13T07:05:44;5.75;;;2.55;;
23390;SDS011;11868;45.606;5.302;2022-09-13T07:08:09;6.05;;;2.60;;
23390;SDS011;11868;45.606;5.302;2022-09-13T07:10:34;15.07;;;3.30;;
23390;SDS011;11868;45.606;5.302;2022-09-13T07:13:00;5.22;;;2.47;;
23390;SDS011;11868;45.606;5.302;2022-09-13T07:15:26;4.90;;;2.60;;
23390;SDS011;11868;45.606;5.302;2022-09-13T07:17:51;3.53;;;2.30;;
23390;SDS011;11868;45.606;5.302;2022-09-13T07:20:17;7.13;;;2.65;;
23390;SDS011;11868;45.606;5.302;2022-09-13T07:22:42;6.75;;;2.60;;
23390;SDS011;11868;45.606;5.302;2022-09-13T07:25:07;5.85;;;2.60;;
23390;SDS011;11868;45.606;5.302;2022-09-13T07:27:33;6.97;;;2.53;;
23390;SDS011;11868;45.606;5.302;2022-09-13T07:29:59;6.55;;;2.85;;
23390;SDS011;11868;45.606;5.302;2022-09-13T07:32:24;4.63;;;2.20;;
23390;SDS011;11868;45.606;5.302;2022-09-13T07:34:49;5.32;;;2.20;;
23390;SDS011;11868;45.606;5.302;2022-09-13T07:37:15;6.72;;;2.25;;
23390;SDS011;11868;45.606;5.302;2022-09-13T07:39:40;8.50;;;2.58;;
23390;SDS011;11868;45.606;5.302;2022-09-13T07:42:05;4.90;;;2.40;;
23390;SDS011;11868;45.606;5.302;2022-09-13T07:44:31;6.82;;;2.42;;
23390;SDS011;11868;45.606;5.302;2022-09-13T07:46:56;6.13;;;2.40;;
23390;SDS011;11868;45.606;5.302;2022-09-13T07:49:22;6.55;;;2.47;;
23390;SDS011;11868;45.606;5.302;2022-09-13T07:51:48;7.13;;;2.78;;
23390;SDS011;11868;45.606;5.302;2022-09-13T07:54:15;10.07;;;3.08;;
23390;SDS011;11868;45.606;5.302;2022-09-13T07:56:42;3.30;;;1.85;;
23390;SDS011;11868;45.606;5.302;2022-09-13T07:59:12;4.18;;;2.28;;
23390;SDS011;11868;45.606;5.302;2022-09-13T08:01:39;8.45;;;2.55;;
23390;SDS011;11868;45.606;5.302;2022-09-13T08:04:13;5.18;;;2.30;;
23390;SDS011;11868;45.606;5.302;2022-09-13T08:06:41;4.65;;;2.22;;
23390;SDS011;11868;45.606;5.302;2022-09-13T08:09:11;5.22;;;2.33;;
23390;SDS011;11868;45.606;5.302;2022-09-13T08:11:37;6.53;;;2.22;;
23390;SDS011;11868;45.606;5.302;2022-09-13T08:14:05;6.30;;;2.15;;
23390;SDS011;11868;45.606;5.302;2022-09-13T08:16:31;2.28;;;1.90;;
23390;SDS011;11868;45.606;5.302;2022-09-13T08:18:58;5.85;;;2.30;;
23390;SDS011;11868;45.606;5.302;2022-09-13T08:21:26;2.92;;;2.00;;
23390;SDS011;11868;45.606;5.302;2022-09-13T08:23:56;5.03;;;1.90;;
23390;SDS011;11868;45.606;5.302;2022-09-13T08:26:24;5.95;;;2.10;;
23390;SDS011;11868;45.606;5.302;2022-09-13T08:28:53;3.92;;;2.30;;
23390;SDS011;11868;45.606;5.302;2022-09-13T08:31:23;5.82;;;1.80;;
23390;SDS011;11868;45.606;5.302;2022-09-13T08:33:48;3.80;;;2.10;;
23390;SDS011;11868;45.606;5.302;2022-09-13T08:36:14;5.22;;;2.28;;
23390;SDS011;11868;45.606;5.302;2022-09-13T08:38:50;3.17;;;2.10;;
23390;SDS011;11868;45.606;5.302;2022-09-13T08:43:58;5.93;;;1.80;;
23390;SDS011;11868;45.606;5.302;2022-09-13T08:46:31;4.88;;;2.00;;
23390;SDS011;11868;45.606;5.302;2022-09-13T08:48:59;6.75;;;1.95;;
23390;SDS011;11868;45.606;5.302;2022-09-13T08:51:45;4.47;;;1.80;;
23390;SDS011;11868;45.606;5.302;2022-09-13T08:54:13;3.55;;;1.92;;
23390;SDS011;11868;45.606;5.302;2022-09-13T08:56:45;3.03;;;1.73;;
23390;SDS011;11868;45.606;5.302;2022-09-13T08:59:22;4.55;;;1.90;;
23390;SDS011;11868;45.606;5.302;2022-09-13T09:04:45;7.03;;;2.53;;
23390;SDS011;11868;45.606;5.302;2022-09-13T09:07:18;5.47;;;1.80;;
23390;SDS011;11868;45.606;5.302;2022-09-13T09:09:52;5.17;;;1.97;;
23390;SDS011;11868;45.606;5.302;2022-09-13T09:12:37;7.60;;;1.83;;
23390;SDS011;11868;45.606;5.302;2022-09-13T09:17:54;8.55;;;1.90;;
23390;SDS011;11868;45.606;5.302;2022-09-13T09:20:27;5.53;;;1.50;;
23390;SDS011;11868;45.606;5.302;2022-09-13T09:22:59;9.43;;;1.88;;
23390;SDS011;11868;45.606;5.302;2022-09-13T09:25:30;5.75;;;1.50;;
23390;SDS011;11868;45.606;5.302;2022-09-13T09:27:55;3.45;;;1.27;;
23390;SDS011;11868;45.606;5.302;2022-09-13T09:30:22;4.43;;;1.35;;
23390;SDS011;11868;45.606;5.302;2022-09-13T09:33:00;3.22;;;1.40;;
23390;SDS011;11868;45.606;5.302;2022-09-13T09:35:36;6.10;;;1.52;;
23390;SDS011;11868;45.606;5.302;2022-09-13T09:40:55;7.72;;;1.63;;
23390;SDS011;11868;45.606;5.302;2022-09-13T09:43:33;7.35;;;1.40;;
23390;SDS011;11868;45.606;5.302;2022-09-13T09:46:03;6.07;;;1.50;;
23390;SDS011;11868;45.606;5.302;2022-09-13T09:48:34;4.18;;;1.67;;
23390;SDS011;11868;45.606;5.302;2022-09-13T09:51:04;4.38;;;1.60;;
23390;SDS011;11868;45.606;5.302;2022-09-13T09:53:32;8.10;;;1.75;;
23390;SDS011;11868;45.606;5.302;2022-09-13T09:56:01;7.78;;;1.60;;
23390;SDS011;11868;45.606;5.302;2022-09-13T09:58:47;12.23;;;1.70;;
23390;SDS011;11868;45.606;5.302;2022-09-13T10:06:32;13.20;;;7.05;;
23390;SDS011;11868;45.606;5.302;2022-09-13T10:09:06;4.43;;;2.20;;
23390;SDS011;11868;45.606;5.302;2022-09-13T10:14:27;7.68;;;1.67;;
23390;SDS011;11868;45.606;5.302;2022-09-13T10:22:29;4.25;;;2.10;;
23390;SDS011;11868;45.606;5.302;2022-09-13T10:27:46;3.75;;;1.58;;
23390;SDS011;11868;45.606;5.302;2022-09-13T10:30:31;4.63;;;1.50;;
23390;SDS011;11868;45.606;5.302;2022-09-13T10:32:59;7.63;;;1.90;;
23390;SDS011;11868;45.606;5.302;2022-09-13T10:35:25;4.20;;;1.63;;
23390;SDS011;11868;45.606;5.302;2022-09-13T10:37:51;4.55;;;1.45;;
23390;SDS011;11868;45.606;5.302;2022-09-13T10:40:18;5.18;;;1.40;;
23390;SDS011;11868;45.606;5.302;2022-09-13T10:42:55;4.57;;;1.55;;
23390;SDS011;11868;45.606;5.302;2022-09-13T10:45:22;2.83;;;1.38;;
23390;SDS011;11868;45.606;5.302;2022-09-13T10:47:50;2.88;;;1.40;;
23390;SDS011;11868;45.606;5.302;2022-09-13T10:50:23;8.85;;;1.60;;
23390;SDS011;11868;45.606;5.302;2022-09-13T10:52:54;4.38;;;1.50;;
23390;SDS011;11868;45.606;5.302;2022-09-13T10:55:31;9.10;;;1.73;;
23390;SDS011;11868;45.606;5.302;2022-09-13T11:06:17;4.45;;;1.40;;
23390;SDS011;11868;45.606;5.302;2022-09-13T11:11:39;7.20;;;1.45;;
23390;SDS011;11868;45.606;5.302;2022-09-13T11:14:15;5.82;;;1.55;;
23390;SDS011;11868;45.606;5.302;2022-09-13T11:17:09;5.82;;;1.65;;
23390;SDS011;11868;45.606;5.302;2022-09-13T11:25:43;6.28;;;1.45;;
23390;SDS011;11868;45.606;5.302;2022-09-13T11:31:06;3.03;;;1.25;;
23390;SDS011;11868;45.606;5.302;2022-09-13T11:36:22;4.55;;;1.63;;
23390;SDS011;11868;45.606;5.302;2022-09-13T11:53:10;4.38;;;1.30;;
23390;SDS011;11868;45.606;5.302;2022-09-13T11:56:01;3.33;;;1.27;;
23390;SDS011;11868;45.606;5.302;2022-09-13T11:58:33;6.60;;;1.60;;
23390;SDS011;11868;45.606;5.302;2022-09-13T12:01:06;5.47;;;1.40;;
23390;SDS011;11868;45.606;5.302;2022-09-13T12:03:48;8.20;;;1.30;;
23390;SDS011;11868;45.606;5.302;2022-09-13T12:08:55;9.27;;;1.30;;
23390;SDS011;11868;45.606;5.302;2022-09-13T12:14:06;4.07;;;1.40;;
23390;SDS011;11868;45.606;5.302;2022-09-13T12:16:41;3.60;;;1.20;;
23390;SDS011;11868;45.606;5.302;2022-09-13T12:19:15;5.18;;;1.38;;
23390;SDS011;11868;45.606;5.302;2022-09-13T12:21:44;3.97;;;1.50;;
23390;SDS011;11868;45.606;5.302;2022-09-13T12:24:19;3.60;;;1.30;;
23390;SDS011;11868;45.606;5.302;2022-09-13T12:27:03;3.05;;;1.30;;
23390;SDS011;11868;45.606;5.302;2022-09-13T12:29:38;6.40;;;1.58;;
23390;SDS011;11868;45.606;5.302;2022-09-13T12:32:08;11.32;;;1.75;;
23390;SDS011;11868;45.606;5.302;2022-09-13T12:34:40;5.68;;;1.88;;
23390;SDS011;11868;45.606;5.302;2022-09-13T12:37:14;8.98;;;1.63;;
23390;SDS011;11868;45.606;5.302;2022-09-13T12:42:28;4.60;;;1.50;;
23390;SDS011;11868;45.606;5.302;2022-09-13T12:45:31;4.93;;;1.60;;
23390;SDS011;11868;45.606;5.302;2022-09-13T12:51:06;9.02;;;1.50;;
23390;SDS011;11868;45.606;5.302;2022-09-13T13:02:20;7.38;;;1.90;;
23390;SDS011;11868;45.606;5.302;2022-09-13T13:04:59;2.92;;;1.40;;
23390;SDS011;11868;45.606;5.302;2022-09-13T13:07:39;3.33;;;1.38;;
23390;SDS011;11868;45.606;5.302;2022-09-13T13:10:20;4.07;;;1.40;;
23390;SDS011;11868;45.606;5.302;2022-09-13T13:12:54;3.88;;;1.50;;
23390;SDS011;11868;45.606;5.302;2022-09-13T13:23:32;9.48;;;1.70;;
23390;SDS011;11868;45.606;5.302;2022-09-13T13:33:58;4.35;;;1.38;;
23390;SDS011;11868;45.606;5.302;2022-09-13T14:00:19;4.60;;;1.67;;
23390;SDS011;11868;45.606;5.302;2022-09-13T14:05:29;3.78;;;1.42;;
23390;SDS011;11868;45.606;5.302;2022-09-13T14:16:24;7.35;;;1.65;;
23390;SDS011;11868;45.606;5.302;2022-09-13T14:21:39;9.40;;;1.67;;
23390;SDS011;11868;45.606;5.302;2022-09-13T14:24:12;8.18;;;1.80;;
23390;SDS011;11868;45.606;5.302;2022-09-13T14:26:45;6.88;;;1.80;;
23390;SDS011;11868;45.606;5.302;2022-09-13T14:29:12;5.93;;;1.67;;
23390;SDS011;11868;45.606;5.302;2022-09-13T14:31:43;5.45;;;1.52;;
23390;SDS011;11868;45.606;5.302;2022-09-13T14:34:53;7.10;;;1.65;;
23390;SDS011;11868;45.606;5.302;2022-09-13T14:37:02;6.32;;;1.70;;
23390;SDS011;11868;45.606;5.302;2022-09-13T14:39:29;3.20;;;1.58;;
23390;SDS011;11868;45.606;5.302;2022-09-13T14:41:59;6.95;;;1.77;;
23390;SDS011;11868;45.606;5.302;2022-09-13T14:44:46;6.40;;;1.88;;
23390;SDS011;11868;45.606;5.302;2022-09-13T14:49:48;9.10;;;1.65;;
23390;SDS011;11868;45.606;5.302;2022-09-13T14:52:24;3.75;;;1.40;;
23390;SDS011;11868;45.606;5.302;2022-09-13T14:54:53;4.72;;;1.60;;
23390;SDS011;11868;45.606;5.302;2022-09-13T14:59:59;6.78;;;1.38;;
23390;SDS011;11868;45.606;5.302;2022-09-13T15:02:59;6.63;;;1.58;;
23390;SDS011;11868;45.606;5.302;2022-09-13T15:05:28;4.28;;;1.40;;
23390;SDS011;11868;45.606;5.302;2022-09-13T15:07:56;6.50;;;1.55;;
23390;SDS011;11868;45.606;5.302;2022-09-13T15:10:25;6.55;;;1.50;;
23390;SDS011;11868;45.606;5.302;2022-09-13T15:12:54;7.18;;;1.67;;
23390;SDS011;11868;45.606;5.302;2022-09-13T15:20:52;6.97;;;1.50;;
23390;SDS011;11868;45.606;5.302;2022-09-13T15:23:21;8.05;;;1.63;;
23390;SDS011;11868;45.606;5.302;2022-09-13T15:28:31;9.00;;;1.77;;
23390;SDS011;11868;45.606;5.302;2022-09-13T15:30:59;7.28;;;1.60;;
23390;SDS011;11868;45.606;5.302;2022-09-13T15:33:29;13.82;;;1.95;;
23390;SDS011;11868;45.606;5.302;2022-09-13T15:41:34;4.65;;;1.73;;
23390;SDS011;11868;45.606;5.302;2022-09-13T15:44:15;6.63;;;1.95;;
23390;SDS011;11868;45.606;5.302;2022-09-13T15:46:47;8.55;;;1.95;;
23390;SDS011;11868;45.606;5.302;2022-09-13T15:49:19;4.38;;;1.50;;
23390;SDS011;11868;45.606;5.302;2022-09-13T15:51:46;6.10;;;1.50;;
23390;SDS011;11868;45.606;5.302;2022-09-13T15:54:13;9.13;;;1.85;;
23390;SDS011;11868;45.606;5.302;2022-09-13T15:56:44;6.65;;;1.58;;
23390;SDS011;11868;45.606;5.302;2022-09-13T15:59:12;4.65;;;1.48;;
23390;SDS011;11868;45.606;5.302;2022-09-13T16:01:38;5.97;;;1.63;;
23390;SDS011;11868;45.606;5.302;2022-09-13T16:04:04;4.63;;;1.40;;
23390;SDS011;11868;45.606;5.302;2022-09-13T16:06:31;4.63;;;1.60;;
23390;SDS011;11868;45.606;5.302;2022-09-13T16:08:57;3.90;;;1.50;;
23390;SDS011;11868;45.606;5.302;2022-09-13T16:11:24;4.85;;;1.85;;
23390;SDS011;11868;45.606;5.302;2022-09-13T16:13:50;3.38;;;1.20;;
23390;SDS011;11868;45.606;5.302;2022-09-13T16:16:15;7.03;;;1.73;;
23390;SDS011;11868;45.606;5.302;2022-09-13T16:18:40;11.18;;;1.88;;
23390;SDS011;11868;45.606;5.302;2022-09-13T16:21:06;6.25;;;1.88;;
23390;SDS011;11868;45.606;5.302;2022-09-13T16:23:31;4.85;;;1.65;;
23390;SDS011;11868;45.606;5.302;2022-09-13T16:25:57;5.50;;;1.67;;
23390;SDS011;11868;45.606;5.302;2022-09-13T16:28:23;2.65;;;1.45;;
23390;SDS011;11868;45.606;5.302;2022-09-13T16:30:49;6.20;;;1.25;;
23390;SDS011;11868;45.606;5.302;2022-09-13T16:33:15;4.43;;;1.60;;
23390;SDS011;11868;45.606;5.302;2022-09-13T16:35:40;6.68;;;1.30;;
23390;SDS011;11868;45.606;5.302;2022-09-13T16:38:06;7.03;;;1.60;;
23390;SDS011;11868;45.606;5.302;2022-09-13T16:40:33;7.90;;;1.70;;
23390;SDS011;11868;45.606;5.302;2022-09-13T16:43:01;4.85;;;1.50;;
23390;SDS011;11868;45.606;5.302;2022-09-13T16:45:26;4.05;;;1.42;;
23390;SDS011;11868;45.606;5.302;2022-09-13T16:47:52;4.35;;;1.67;;
23390;SDS011;11868;45.606;5.302;2022-09-13T16:50:20;3.80;;;1.65;;
23390;SDS011;11868;45.606;5.302;2022-09-13T16:52:46;4.43;;;1.50;;
23390;SDS011;11868;45.606;5.302;2022-09-13T16:55:12;4.05;;;1.60;;
23390;SDS011;11868;45.606;5.302;2022-09-13T16:57:40;3.55;;;1.30;;
23390;SDS011;11868;45.606;5.302;2022-09-13T17:00:06;3.83;;;1.83;;
23390;SDS011;11868;45.606;5.302;2022-09-13T17:02:36;3.72;;;1.40;;
23390;SDS011;11868;45.606;5.302;2022-09-13T17:07:31;2.67;;;1.40;;
23390;SDS011;11868;45.606;5.302;2022-09-13T17:09:57;5.90;;;1.55;;
23390;SDS011;11868;45.606;5.302;2022-09-13T17:12:24;4.15;;;1.60;;
23390;SDS011;11868;45.606;5.302;2022-09-13T17:14:49;4.85;;;1.60;;
23390;SDS011;11868;45.606;5.302;2022-09-13T17:17:15;7.95;;;2.53;;
23390;SDS011;11868;45.606;5.302;2022-09-13T17:19:41;8.18;;;2.00;;
23390;SDS011;11868;45.606;5.302;2022-09-13T17:22:08;4.15;;;2.10;;
23390;SDS011;11868;45.606;5.302;2022-09-13T17:24:35;3.92;;;1.80;;
23390;SDS011;11868;45.606;5.302;2022-09-13T17:27:01;3.60;;;1.40;;
23390;SDS011;11868;45.606;5.302;2022-09-13T17:29:28;5.32;;;1.70;;
23390;SDS011;11868;45.606;5.302;2022-09-13T17:31:55;3.13;;;1.60;;
23390;SDS011;11868;45.606;5.302;2022-09-13T17:36:50;3.75;;;1.45;;
23390;SDS011;11868;45.606;5.302;2022-09-13T17:39:20;6.20;;;1.77;;
23390;SDS011;11868;45.606;5.302;2022-09-13T17:41:47;3.58;;;1.58;;
23390;SDS011;11868;45.606;5.302;2022-09-13T17:44:13;5.88;;;1.90;;
23390;SDS011;11868;45.606;5.302;2022-09-13T17:46:40;8.45;;;1.80;;
23390;SDS011;11868;45.606;5.302;2022-09-13T17:49:05;4.53;;;1.85;;
23390;SDS011;11868;45.606;5.302;2022-09-13T17:51:33;3.05;;;1.60;;
23390;SDS011;11868;45.606;5.302;2022-09-13T17:54:03;2.30;;;1.38;;
23390;SDS011;11868;45.606;5.302;2022-09-13T17:56:41;6.45;;;1.80;;
23390;SDS011;11868;45.606;5.302;2022-09-13T17:59:11;3.92;;;1.75;;
23390;SDS011;11868;45.606;5.302;2022-09-13T18:01:50;3.63;;;1.60;;
23390;SDS011;11868;45.606;5.302;2022-09-13T18:04:22;3.13;;;1.70;;
23390;SDS011;11868;45.606;5.302;2022-09-13T18:06:49;6.18;;;1.95;;
23390;SDS011;11868;45.606;5.302;2022-09-13T18:09:15;8.98;;;1.77;;
23390;SDS011;11868;45.606;5.302;2022-09-13T18:11:40;4.72;;;1.83;;
23390;SDS011;11868;45.606;5.302;2022-09-13T18:14:09;5.90;;;1.92;;
23390;SDS011;11868;45.606;5.302;2022-09-13T18:16:36;6.55;;;1.80;;
23390;SDS011;11868;45.606;5.302;2022-09-13T18:19:01;2.35;;;1.73;;
23390;SDS011;11868;45.606;5.302;2022-09-13T18:21:27;2.05;;;1.70;;
23390;SDS011;11868;45.606;5.302;2022-09-13T18:23:54;5.22;;;1.65;;
23390;SDS011;11868;45.606;5.302;2022-09-13T18:28:53;2.88;;;1.73;;
23390;SDS011;11868;45.606;5.302;2022-09-13T18:31:20;5.82;;;2.10;;
23390;SDS011;11868;45.606;5.302;2022-09-13T18:33:46;2.55;;;1.70;;
23390;SDS011;11868;45.606;5.302;2022-09-13T18:36:16;2.97;;;1.60;;
23390;SDS011;11868;45.606;5.302;2022-09-13T18:38:42;4.47;;;1.70;;
23390;SDS011;11868;45.606;5.302;2022-09-13T18:41:13;3.78;;;1.70;;
23390;SDS011;11868;45.606;5.302;2022-09-13T18:43:49;4.63;;;1.92;;
23390;SDS011;11868;45.606;5.302;2022-09-13T18:46:16;5.25;;;1.88;;